sensor_id;sensor_type;location;lat;lon;timestamp;temperature;humidity
25983;DHT22;13773;48.868;10.730;2022-12-07T00:01:14;1.60;99.90
25983;DHT22;13773;48.868;10.730;2022-12-07T00:03:41;1.60;99.90
25983;DHT22;13773;48.868;10.730;2022-12-07T00:06:09;1.60;99.90
25983;DHT22;13773;48.868;10.730;2022-12-07T00:08:35;1.60;99.90
25983;DHT22;13773;48.868;10.730;2022-12-07T00:11:09;1.60;99.90
25983;DHT22;13773;48.868;10.730;2022-12-07T00:13:35;1.50;99.90
25983;DHT22;13773;48.868;10.730;2022-12-07T00:16:05;1.50;99.90
25983;DHT22;13773;48.868;10.730;2022-12-07T00:18:31;1.60;99.90
25983;DHT22;13773;48.868;10.730;2022-12-07T00:21:02;1.60;99.90
25983;DHT22;13773;48.868;10.730;2022-12-07T00:23:28;1.60;99.90
25983;DHT22;13773;48.868;10.730;2022-12-07T00:25:54;1.50;99.90
25983;DHT22;13773;48.868;10.730;2022-12-07T00:28:20;1.60;99.90
25983;DHT22;13773;48.868;10.730;2022-12-07T00:30:45;1.50;99.90
25983;DHT22;13773;48.868;10.730;2022-12-07T00:33:11;1.50;99.90
25983;DHT22;13773;48.868;10.730;2022-12-07T00:35:37;1.50;99.90
25983;DHT22;13773;48.868;10.730;2022-12-07T00:38:02;1.50;99.90
25983;DHT22;13773;48.868;10.730;2022-12-07T00:40:28;1.60;99.90
25983;DHT22;13773;48.868;10.730;2022-12-07T00:42:54;1.50;99.90
25983;DHT22;13773;48.868;10.730;2022-12-07T00:45:19;1.50;99.90
25983;DHT22;13773;48.868;10.730;2022-12-07T00:47:45;1.50;99.90
25983;DHT22;13773;48.868;10.730;2022-12-07T00:50:11;1.50;99.90
25983;DHT22;13773;48.868;10.730;2022-12-07T00:52:36;1.50;99.90
25983;DHT22;13773;48.868;10.730;2022-12-07T00:55:02;1.50;99.90
25983;DHT22;13773;48.868;10.730;2022-12-07T00:57:30;1.50;99.90
25983;DHT22;13773;48.868;10.730;2022-12-07T00:59:56;1.50;99.90
25983;DHT22;13773;48.868;10.730;2022-12-07T01:02:23;1.50;99.90
25983;DHT22;13773;48.868;10.730;2022-12-07T01:04:48;1.50;99.90
25983;DHT22;13773;48.868;10.730;2022-12-07T01:07:14;1.40;99.90
25983;DHT22;13773;48.868;10.730;2022-12-07T01:09:40;4.10;99.90
25983;DHT22;13773;48.868;10.730;2022-12-07T01:12:05;1.40;99.90
25983;DHT22;13773;48.868;10.730;2022-12-07T01:14:31;1.40;99.90
25983;DHT22;13773;48.868;10.730;2022-12-07T01:16:57;1.40;99.90
25983;DHT22;13773;48.868;10.730;2022-12-07T01:19:22;1.40;99.90
25983;DHT22;13773;48.868;10.730;2022-12-07T01:21:48;1.40;99.90
25983;DHT22;13773;48.868;10.730;2022-12-07T01:24:14;1.40;99.90
25983;DHT22;13773;48.868;10.730;2022-12-07T01:26:40;1.40;99.90
25983;DHT22;13773;48.868;10.730;2022-12-07T01:29:06;1.40;99.90
25983;DHT22;13773;48.868;10.730;2022-12-07T01:31:33;1.40;99.90
25983;DHT22;13773;48.868;10.730;2022-12-07T01:33:59;1.40;99.90
25983;DHT22;13773;48.868;10.730;2022-12-07T01:36:28;1.40;99.90
25983;DHT22;13773;48.868;10.730;2022-12-07T01:38:57;1.50;99.90
25983;DHT22;13773;48.868;10.730;2022-12-07T01:41:26;1.40;99.90
25983;DHT22;13773;48.868;10.730;2022-12-07T01:44:13;1.40;99.90
25983;DHT22;13773;48.868;10.730;2022-12-07T01:46:40;1.40;99.90
25983;DHT22;13773;48.868;10.730;2022-12-07T01:49:10;1.40;99.90
25983;DHT22;13773;48.868;10.730;2022-12-07T01:51:39;1.40;99.90
25983;DHT22;13773;48.868;10.730;2022-12-07T01:54:07;1.30;99.90
25983;DHT22;13773;48.868;10.730;2022-12-07T01:56:33;1.30;99.90
25983;DHT22;13773;48.868;10.730;2022-12-07T01:59:00;1.30;99.90
25983;DHT22;13773;48.868;10.730;2022-12-07T02:01:26;1.30;99.90
25983;DHT22;13773;48.868;10.730;2022-12-07T02:03:52;1.30;99.90
25983;DHT22;13773;48.868;10.730;2022-12-07T02:06:22;1.30;99.90
25983;DHT22;13773;48.868;10.730;2022-12-07T02:08:49;1.30;99.90
25983;DHT22;13773;48.868;10.730;2022-12-07T02:11:15;1.30;99.90
25983;DHT22;13773;48.868;10.730;2022-12-07T02:13:42;1.30;99.90
25983;DHT22;13773;48.868;10.730;2022-12-07T02:16:20;1.30;99.90
25983;DHT22;13773;48.868;10.730;2022-12-07T02:21:40;1.30;99.90
25983;DHT22;13773;48.868;10.730;2022-12-07T02:29:34;1.30;99.90
25983;DHT22;13773;48.868;10.730;2022-12-07T02:34:58;1.20;99.90
25983;DHT22;13773;48.868;10.730;2022-12-07T02:40:37;1.20;99.90
25983;DHT22;13773;48.868;10.730;2022-12-07T02:43:12;1.20;99.90
25983;DHT22;13773;48.868;10.730;2022-12-07T02:45:41;1.20;99.90
25983;DHT22;13773;48.868;10.730;2022-12-07T02:48:09;1.20;99.90
25983;DHT22;13773;48.868;10.730;2022-12-07T02:50:35;1.20;99.90
25983;DHT22;13773;48.868;10.730;2022-12-07T02:53:01;1.20;99.90
25983;DHT22;13773;48.868;10.730;2022-12-07T02:55:31;1.20;99.90
25983;DHT22;13773;48.868;10.730;2022-12-07T02:58:27;1.20;99.90
25983;DHT22;13773;48.868;10.730;2022-12-07T03:01:22;1.20;99.90
25983;DHT22;13773;48.868;10.730;2022-12-07T03:04:02;1.20;99.90
25983;DHT22;13773;48.868;10.730;2022-12-07T03:06:37;1.20;99.90
25983;DHT22;13773;48.868;10.730;2022-12-07T03:11:48;1.20;99.90
25983;DHT22;13773;48.868;10.730;2022-12-07T03:14:23;1.20;99.90
25983;DHT22;13773;48.868;10.730;2022-12-07T03:16:57;1.20;99.90
25983;DHT22;13773;48.868;10.730;2022-12-07T03:19:26;1.20;99.90
25983;DHT22;13773;48.868;10.730;2022-12-07T03:22:04;1.10;99.90
25983;DHT22;13773;48.868;10.730;2022-12-07T03:24:37;1.10;99.90
25983;DHT22;13773;48.868;10.730;2022-12-07T03:27:25;1.10;99.90
25983;DHT22;13773;48.868;10.730;2022-12-07T03:30:06;1.10;99.90
25983;DHT22;13773;48.868;10.730;2022-12-07T03:32:41;1.00;99.90
25983;DHT22;13773;48.868;10.730;2022-12-07T03:35:14;1.00;99.90
25983;DHT22;13773;48.868;10.730;2022-12-07T03:37:52;1.00;99.90
25983;DHT22;13773;48.868;10.730;2022-12-07T03:40:28;1.00;99.90
25983;DHT22;13773;48.868;10.730;2022-12-07T03:42:56;1.00;99.90
25983;DHT22;13773;48.868;10.730;2022-12-07T03:45:52;1.00;99.90
25983;DHT22;13773;48.868;10.730;2022-12-07T03:51:34;1.00;99.90
25983;DHT22;13773;48.868;10.730;2022-12-07T03:56:48;0.80;99.90
25983;DHT22;13773;48.868;10.730;2022-12-07T03:59:15;0.80;99.90
25983;DHT22;13773;48.868;10.730;2022-12-07T04:01:44;0.80;99.90
25983;DHT22;13773;48.868;10.730;2022-12-07T04:04:11;0.70;99.90
25983;DHT22;13773;48.868;10.730;2022-12-07T04:06:37;0.70;99.90
25983;DHT22;13773;48.868;10.730;2022-12-07T04:09:02;0.60;99.90
25983;DHT22;13773;48.868;10.730;2022-12-07T04:11:28;0.60;99.90
25983;DHT22;13773;48.868;10.730;2022-12-07T04:13:54;0.60;99.90
25983;DHT22;13773;48.868;10.730;2022-12-07T04:16:38;0.50;99.90
25983;DHT22;13773;48.868;10.730;2022-12-07T04:19:04;0.50;99.90
25983;DHT22;13773;48.868;10.730;2022-12-07T04:21:30;0.50;99.90
25983;DHT22;13773;48.868;10.730;2022-12-07T04:23:55;0.50;99.90
25983;DHT22;13773;48.868;10.730;2022-12-07T04:26:21;0.40;99.90
25983;DHT22;13773;48.868;10.730;2022-12-07T04:28:47;0.40;99.90
25983;DHT22;13773;48.868;10.730;2022-12-07T04:31:12;0.30;99.90
25983;DHT22;13773;48.868;10.730;2022-12-07T04:33:38;0.20;99.90
25983;DHT22;13773;48.868;10.730;2022-12-07T04:36:04;0.20;99.90
25983;DHT22;13773;48.868;10.730;2022-12-07T04:38:30;0.10;99.90
25983;DHT22;13773;48.868;10.730;2022-12-07T04:40:56;-0.10;99.90
25983;DHT22;13773;48.868;10.730;2022-12-07T04:43:21;-0.20;99.90
25983;DHT22;13773;48.868;10.730;2022-12-07T04:45:48;-0.30;99.90
25983;DHT22;13773;48.868;10.730;2022-12-07T04:48:14;-0.40;99.90
25983;DHT22;13773;48.868;10.730;2022-12-07T04:50:39;-0.40;99.90
25983;DHT22;13773;48.868;10.730;2022-12-07T04:53:05;-0.40;99.90
25983;DHT22;13773;48.868;10.730;2022-12-07T04:55:31;-0.40;99.90
25983;DHT22;13773;48.868;10.730;2022-12-07T04:57:57;-0.40;99.90
25983;DHT22;13773;48.868;10.730;2022-12-07T05:00:22;-0.30;99.90
25983;DHT22;13773;48.868;10.730;2022-12-07T05:02:48;-0.30;99.90
25983;DHT22;13773;48.868;10.730;2022-12-07T05:05:14;-0.20;99.90
25983;DHT22;13773;48.868;10.730;2022-12-07T05:07:39;-0.10;99.90
25983;DHT22;13773;48.868;10.730;2022-12-07T05:10:06;-0.20;99.90
25983;DHT22;13773;48.868;10.730;2022-12-07T05:12:31;-0.30;99.90
25983;DHT22;13773;48.868;10.730;2022-12-07T05:14:57;-0.30;99.90
25983;DHT22;13773;48.868;10.730;2022-12-07T05:17:23;-0.30;99.90
25983;DHT22;13773;48.868;10.730;2022-12-07T05:19:48;-0.40;99.90
25983;DHT22;13773;48.868;10.730;2022-12-07T05:22:14;-0.50;99.90
25983;DHT22;13773;48.868;10.730;2022-12-07T05:24:40;-0.60;99.90
25983;DHT22;13773;48.868;10.730;2022-12-07T05:27:06;-0.60;99.90
25983;DHT22;13773;48.868;10.730;2022-12-07T05:29:32;-0.50;99.90
25983;DHT22;13773;48.868;10.730;2022-12-07T05:31:57;-0.50;99.90
25983;DHT22;13773;48.868;10.730;2022-12-07T05:34:23;-0.50;99.90
25983;DHT22;13773;48.868;10.730;2022-12-07T05:36:49;-0.50;99.90
25983;DHT22;13773;48.868;10.730;2022-12-07T05:39:15;-0.60;99.90
25983;DHT22;13773;48.868;10.730;2022-12-07T05:41:41;-0.50;99.90
25983;DHT22;13773;48.868;10.730;2022-12-07T05:44:25;-0.50;99.90
25983;DHT22;13773;48.868;10.730;2022-12-07T05:46:51;-0.40;99.90
25983;DHT22;13773;48.868;10.730;2022-12-07T05:49:17;-0.30;99.90
25983;DHT22;13773;48.868;10.730;2022-12-07T05:51:43;-0.20;99.90
25983;DHT22;13773;48.868;10.730;2022-12-07T05:54:08;-0.20;99.90
25983;DHT22;13773;48.868;10.730;2022-12-07T05:56:34;-0.20;99.90
25983;DHT22;13773;48.868;10.730;2022-12-07T05:59:00;-0.10;99.90
25983;DHT22;13773;48.868;10.730;2022-12-07T06:01:44;-0.10;99.90
25983;DHT22;13773;48.868;10.730;2022-12-07T06:04:10;-0.10;99.90
25983;DHT22;13773;48.868;10.730;2022-12-07T06:06:35;-0.10;99.90
25983;DHT22;13773;48.868;10.730;2022-12-07T06:09:02;-0.10;99.90
25983;DHT22;13773;48.868;10.730;2022-12-07T06:11:27;-0.10;99.90
25983;DHT22;13773;48.868;10.730;2022-12-07T06:14:12;-0.10;99.90
25983;DHT22;13773;48.868;10.730;2022-12-07T06:16:37;0.00;99.90
25983;DHT22;13773;48.868;10.730;2022-12-07T06:19:03;0.00;99.90
25983;DHT22;13773;48.868;10.730;2022-12-07T06:21:29;0.00;99.90
25983;DHT22;13773;48.868;10.730;2022-12-07T06:23:55;0.00;99.90
25983;DHT22;13773;48.868;10.730;2022-12-07T06:26:21;0.00;99.90
25983;DHT22;13773;48.868;10.730;2022-12-07T06:28:47;0.00;99.90
25983;DHT22;13773;48.868;10.730;2022-12-07T06:31:12;0.10;99.90
25983;DHT22;13773;48.868;10.730;2022-12-07T06:33:38;0.10;99.90
25983;DHT22;13773;48.868;10.730;2022-12-07T06:36:04;0.10;99.90
25983;DHT22;13773;48.868;10.730;2022-12-07T06:38:30;0.10;99.90
25983;DHT22;13773;48.868;10.730;2022-12-07T06:40:56;0.10;99.90
25983;DHT22;13773;48.868;10.730;2022-12-07T06:43:21;0.10;99.90
25983;DHT22;13773;48.868;10.730;2022-12-07T06:45:47;0.10;99.90
25983;DHT22;13773;48.868;10.730;2022-12-07T06:48:13;0.20;99.90
25983;DHT22;13773;48.868;10.730;2022-12-07T06:50:39;0.20;99.90
25983;DHT22;13773;48.868;10.730;2022-12-07T06:53:05;0.20;99.90
25983;DHT22;13773;48.868;10.730;2022-12-07T06:55:31;0.20;99.90
25983;DHT22;13773;48.868;10.730;2022-12-07T06:57:57;0.30;99.90
25983;DHT22;13773;48.868;10.730;2022-12-07T07:00:23;0.30;99.90
25983;DHT22;13773;48.868;10.730;2022-12-07T07:02:49;0.30;99.90
25983;DHT22;13773;48.868;10.730;2022-12-07T07:05:14;0.40;99.90
25983;DHT22;13773;48.868;10.730;2022-12-07T07:07:41;0.40;99.90
25983;DHT22;13773;48.868;10.730;2022-12-07T07:10:07;0.40;99.90
25983;DHT22;13773;48.868;10.730;2022-12-07T07:12:33;0.50;99.90
25983;DHT22;13773;48.868;10.730;2022-12-07T07:14:59;0.50;99.90
25983;DHT22;13773;48.868;10.730;2022-12-07T07:17:24;0.50;99.90
25983;DHT22;13773;48.868;10.730;2022-12-07T07:19:50;0.60;99.90
25983;DHT22;13773;48.868;10.730;2022-12-07T07:22:16;0.60;99.90
25983;DHT22;13773;48.868;10.730;2022-12-07T07:24:41;0.60;99.90
25983;DHT22;13773;48.868;10.730;2022-12-07T07:27:07;0.60;99.90
25983;DHT22;13773;48.868;10.730;2022-12-07T07:29:33;0.60;99.90
25983;DHT22;13773;48.868;10.730;2022-12-07T07:32:00;0.70;99.90
25983;DHT22;13773;48.868;10.730;2022-12-07T07:34:26;0.80;99.90
25983;DHT22;13773;48.868;10.730;2022-12-07T07:36:51;0.80;99.90
25983;DHT22;13773;48.868;10.730;2022-12-07T07:39:17;0.80;99.90
25983;DHT22;13773;48.868;10.730;2022-12-07T07:41:43;0.90;99.90
25983;DHT22;13773;48.868;10.730;2022-12-07T07:44:09;0.90;99.90
25983;DHT22;13773;48.868;10.730;2022-12-07T07:46:35;0.90;99.90
25983;DHT22;13773;48.868;10.730;2022-12-07T07:49:01;0.90;99.90
25983;DHT22;13773;48.868;10.730;2022-12-07T07:51:27;0.90;99.90
25983;DHT22;13773;48.868;10.730;2022-12-07T07:53:52;1.00;99.90
25983;DHT22;13773;48.868;10.730;2022-12-07T07:56:18;1.00;99.90
25983;DHT22;13773;48.868;10.730;2022-12-07T07:58:44;1.00;99.90
25983;DHT22;13773;48.868;10.730;2022-12-07T08:01:10;1.00;99.90
25983;DHT22;13773;48.868;10.730;2022-12-07T08:03:36;1.10;99.90
25983;DHT22;13773;48.868;10.730;2022-12-07T08:06:03;1.10;99.90
25983;DHT22;13773;48.868;10.730;2022-12-07T08:08:29;1.10;99.90
25983;DHT22;13773;48.868;10.730;2022-12-07T08:10:55;1.20;99.90
25983;DHT22;13773;48.868;10.730;2022-12-07T08:13:20;1.20;99.90
25983;DHT22;13773;48.868;10.730;2022-12-07T08:15:47;1.30;99.90
25983;DHT22;13773;48.868;10.730;2022-12-07T08:18:14;1.30;99.90
25983;DHT22;13773;48.868;10.730;2022-12-07T08:20:41;1.40;99.90
25983;DHT22;13773;48.868;10.730;2022-12-07T08:23:08;1.40;99.90
25983;DHT22;13773;48.868;10.730;2022-12-07T08:25:34;1.40;99.90
25983;DHT22;13773;48.868;10.730;2022-12-07T08:28:00;1.40;99.90
25983;DHT22;13773;48.868;10.730;2022-12-07T08:30:27;1.40;99.90
25983;DHT22;13773;48.868;10.730;2022-12-07T08:32:53;1.50;99.90
25983;DHT22;13773;48.868;10.730;2022-12-07T08:35:20;1.20;99.90
25983;DHT22;13773;48.868;10.730;2022-12-07T08:37:46;1.60;99.90
25983;DHT22;13773;48.868;10.730;2022-12-07T08:40:13;1.60;99.90
25983;DHT22;13773;48.868;10.730;2022-12-07T08:42:53;1.60;99.90
25983;DHT22;13773;48.868;10.730;2022-12-07T08:45:20;1.60;99.90
25983;DHT22;13773;48.868;10.730;2022-12-07T08:47:59;1.70;99.90
25983;DHT22;13773;48.868;10.730;2022-12-07T08:50:28;1.70;99.90
25983;DHT22;13773;48.868;10.730;2022-12-07T08:52:56;1.70;99.90
25983;DHT22;13773;48.868;10.730;2022-12-07T08:55:23;1.80;99.90
25983;DHT22;13773;48.868;10.730;2022-12-07T08:57:49;1.80;99.90
25983;DHT22;13773;48.868;10.730;2022-12-07T09:00:15;1.80;99.90
25983;DHT22;13773;48.868;10.730;2022-12-07T09:02:43;1.80;99.90
25983;DHT22;13773;48.868;10.730;2022-12-07T09:05:10;1.90;99.90
25983;DHT22;13773;48.868;10.730;2022-12-07T09:07:36;1.90;99.90
25983;DHT22;13773;48.868;10.730;2022-12-07T09:10:04;1.90;99.90
25983;DHT22;13773;48.868;10.730;2022-12-07T09:12:30;2.00;99.90
25983;DHT22;13773;48.868;10.730;2022-12-07T09:14:55;2.10;99.90
25983;DHT22;13773;48.868;10.730;2022-12-07T09:17:21;2.10;99.90
25983;DHT22;13773;48.868;10.730;2022-12-07T09:19:47;2.10;99.90
25983;DHT22;13773;48.868;10.730;2022-12-07T09:22:13;2.10;99.90
25983;DHT22;13773;48.868;10.730;2022-12-07T09:24:38;2.20;99.90
25983;DHT22;13773;48.868;10.730;2022-12-07T09:27:05;2.20;99.90
25983;DHT22;13773;48.868;10.730;2022-12-07T09:29:30;2.30;99.90
25983;DHT22;13773;48.868;10.730;2022-12-07T09:31:56;2.40;99.90
25983;DHT22;13773;48.868;10.730;2022-12-07T09:34:22;2.40;99.90
25983;DHT22;13773;48.868;10.730;2022-12-07T09:36:47;2.40;99.90
25983;DHT22;13773;48.868;10.730;2022-12-07T09:39:21;2.50;99.90
25983;DHT22;13773;48.868;10.730;2022-12-07T09:41:48;2.50;99.90
25983;DHT22;13773;48.868;10.730;2022-12-07T09:44:23;2.50;99.90
25983;DHT22;13773;48.868;10.730;2022-12-07T09:46:49;2.60;99.90
25983;DHT22;13773;48.868;10.730;2022-12-07T09:49:23;2.60;99.90
25983;DHT22;13773;48.868;10.730;2022-12-07T09:54:36;2.70;99.90
25983;DHT22;13773;48.868;10.730;2022-12-07T09:57:04;2.80;99.90
25983;DHT22;13773;48.868;10.730;2022-12-07T09:59:30;2.80;99.90
25983;DHT22;13773;48.868;10.730;2022-12-07T10:02:21;2.80;99.90
25983;DHT22;13773;48.868;10.730;2022-12-07T10:04:48;2.80;99.90
25983;DHT22;13773;48.868;10.730;2022-12-07T10:07:14;2.70;99.90
25983;DHT22;13773;48.868;10.730;2022-12-07T10:09:40;2.70;99.90
25983;DHT22;13773;48.868;10.730;2022-12-07T10:12:08;2.80;99.90
25983;DHT22;13773;48.868;10.730;2022-12-07T10:14:37;2.80;99.90
25983;DHT22;13773;48.868;10.730;2022-12-07T10:19:52;3.00;99.90
25983;DHT22;13773;48.868;10.730;2022-12-07T10:22:17;3.00;99.90
25983;DHT22;13773;48.868;10.730;2022-12-07T10:24:46;2.80;99.90
25983;DHT22;13773;48.868;10.730;2022-12-07T10:27:26;2.90;99.90
25983;DHT22;13773;48.868;10.730;2022-12-07T10:29:54;3.10;99.90
25983;DHT22;13773;48.868;10.730;2022-12-07T10:32:33;3.10;99.90
25983;DHT22;13773;48.868;10.730;2022-12-07T10:37:51;3.20;99.90
25983;DHT22;13773;48.868;10.730;2022-12-07T10:43:17;3.30;99.90
25983;DHT22;13773;48.868;10.730;2022-12-07T10:48:43;3.30;99.90
25983;DHT22;13773;48.868;10.730;2022-12-07T10:51:49;3.30;99.90
25983;DHT22;13773;48.868;10.730;2022-12-07T10:59:56;3.50;99.90
25983;DHT22;13773;48.868;10.730;2022-12-07T11:05:21;3.50;99.90
25983;DHT22;13773;48.868;10.730;2022-12-07T11:11:32;3.50;99.90
25983;DHT22;13773;48.868;10.730;2022-12-07T11:21:59;3.60;99.90
25983;DHT22;13773;48.868;10.730;2022-12-07T11:24:40;3.60;99.90
25983;DHT22;13773;48.868;10.730;2022-12-07T11:30:16;3.70;99.90
25983;DHT22;13773;48.868;10.730;2022-12-07T11:35:57;2.80;99.90
25983;DHT22;13773;48.868;10.730;2022-12-07T11:38:48;3.70;99.90
25983;DHT22;13773;48.868;10.730;2022-12-07T11:41:22;3.70;99.90
25983;DHT22;13773;48.868;10.730;2022-12-07T11:44:17;3.70;99.90
25983;DHT22;13773;48.868;10.730;2022-12-07T11:47:10;3.60;99.90
25983;DHT22;13773;48.868;10.730;2022-12-07T11:52:47;3.70;99.90
25983;DHT22;13773;48.868;10.730;2022-12-07T11:55:38;3.70;99.90
25983;DHT22;13773;48.868;10.730;2022-12-07T11:58:22;3.70;99.90
25983;DHT22;13773;48.868;10.730;2022-12-07T12:06:37;3.60;99.90
25983;DHT22;13773;48.868;10.730;2022-12-07T12:12:08;3.50;99.90
25983;DHT22;13773;48.868;10.730;2022-12-07T12:20:32;3.30;99.90
25983;DHT22;13773;48.868;10.730;2022-12-07T12:28:20;3.30;99.90
25983;DHT22;13773;48.868;10.730;2022-12-07T12:33:57;3.20;99.90
25983;DHT22;13773;48.868;10.730;2022-12-07T12:36:28;3.20;99.90
25983;DHT22;13773;48.868;10.730;2022-12-07T12:39:16;3.20;99.90
25983;DHT22;13773;48.868;10.730;2022-12-07T12:46:50;3.20;99.90
25983;DHT22;13773;48.868;10.730;2022-12-07T12:57:29;3.20;99.90
25983;DHT22;13773;48.868;10.730;2022-12-07T12:59:58;3.10;99.90
25983;DHT22;13773;48.868;10.730;2022-12-07T13:02:38;3.10;99.90
25983;DHT22;13773;48.868;10.730;2022-12-07T13:26:26;3.00;99.90
25983;DHT22;13773;48.868;10.730;2022-12-07T13:29:15;3.00;99.90
25983;DHT22;13773;48.868;10.730;2022-12-07T13:34:35;3.00;99.90
25983;DHT22;13773;48.868;10.730;2022-12-07T13:37:12;3.00;99.90
25983;DHT22;13773;48.868;10.730;2022-12-07T13:40:11;3.00;99.90
25983;DHT22;13773;48.868;10.730;2022-12-07T13:42:41;3.00;99.90
25983;DHT22;13773;48.868;10.730;2022-12-07T13:45:22;2.90;99.90
25983;DHT22;13773;48.868;10.730;2022-12-07T13:48:19;2.90;99.90
25983;DHT22;13773;48.868;10.730;2022-12-07T13:50:53;2.90;99.90
25983;DHT22;13773;48.868;10.730;2022-12-07T13:53:20;2.80;99.90
25983;DHT22;13773;48.868;10.730;2022-12-07T13:55:46;2.90;99.90
25983;DHT22;13773;48.868;10.730;2022-12-07T13:58:13;2.90;99.90
25983;DHT22;13773;48.868;10.730;2022-12-07T14:00:40;2.80;99.90
25983;DHT22;13773;48.868;10.730;2022-12-07T14:05:40;2.80;99.90
25983;DHT22;13773;48.868;10.730;2022-12-07T14:08:22;2.90;99.90
25983;DHT22;13773;48.868;10.730;2022-12-07T14:13:35;2.90;99.90
25983;DHT22;13773;48.868;10.730;2022-12-07T14:16:03;2.90;99.90
25983;DHT22;13773;48.868;10.730;2022-12-07T14:18:41;2.80;99.90
25983;DHT22;13773;48.868;10.730;2022-12-07T14:23:37;2.70;99.90
25983;DHT22;13773;48.868;10.730;2022-12-07T14:26:18;2.70;99.90
25983;DHT22;13773;48.868;10.730;2022-12-07T14:28:44;2.80;99.90
25983;DHT22;13773;48.868;10.730;2022-12-07T14:31:18;2.80;99.90
25983;DHT22;13773;48.868;10.730;2022-12-07T14:33:46;2.70;99.90
25983;DHT22;13773;48.868;10.730;2022-12-07T14:36:13;2.70;99.90
25983;DHT22;13773;48.868;10.730;2022-12-07T14:38:40;2.70;99.90
25983;DHT22;13773;48.868;10.730;2022-12-07T14:41:17;2.80;99.90
25983;DHT22;13773;48.868;10.730;2022-12-07T14:44:11;2.80;99.90
25983;DHT22;13773;48.868;10.730;2022-12-07T14:46:37;2.70;99.90
25983;DHT22;13773;48.868;10.730;2022-12-07T14:49:03;2.70;99.90
25983;DHT22;13773;48.868;10.730;2022-12-07T14:51:28;2.70;99.90
25983;DHT22;13773;48.868;10.730;2022-12-07T14:53:54;2.60;99.90
25983;DHT22;13773;48.868;10.730;2022-12-07T14:56:20;2.60;99.90
25983;DHT22;13773;48.868;10.730;2022-12-07T14:58:46;2.60;99.90
25983;DHT22;13773;48.868;10.730;2022-12-07T15:01:13;2.60;99.90
25983;DHT22;13773;48.868;10.730;2022-12-07T15:03:39;2.60;99.90
25983;DHT22;13773;48.868;10.730;2022-12-07T15:06:06;2.60;99.90
25983;DHT22;13773;48.868;10.730;2022-12-07T15:08:32;2.60;99.90
25983;DHT22;13773;48.868;10.730;2022-12-07T15:10:58;2.60;99.90
25983;DHT22;13773;48.868;10.730;2022-12-07T15:13:23;2.60;99.90
25983;DHT22;13773;48.868;10.730;2022-12-07T15:16:13;2.60;99.90
25983;DHT22;13773;48.868;10.730;2022-12-07T15:18:40;2.50;99.90
25983;DHT22;13773;48.868;10.730;2022-12-07T15:21:12;2.50;99.90
25983;DHT22;13773;48.868;10.730;2022-12-07T15:23:39;2.50;99.90
25983;DHT22;13773;48.868;10.730;2022-12-07T15:26:04;2.50;99.90
25983;DHT22;13773;48.868;10.730;2022-12-07T15:28:30;2.50;99.90
25983;DHT22;13773;48.868;10.730;2022-12-07T15:30:56;2.50;99.90
25983;DHT22;13773;48.868;10.730;2022-12-07T15:33:22;2.50;99.90
25983;DHT22;13773;48.868;10.730;2022-12-07T15:35:47;2.50;99.90
25983;DHT22;13773;48.868;10.730;2022-12-07T15:38:13;2.50;99.90
25983;DHT22;13773;48.868;10.730;2022-12-07T15:40:39;2.40;99.90
25983;DHT22;13773;48.868;10.730;2022-12-07T15:43:05;2.40;99.90
25983;DHT22;13773;48.868;10.730;2022-12-07T15:45:51;2.40;99.90
25983;DHT22;13773;48.868;10.730;2022-12-07T15:48:17;2.30;99.90
25983;DHT22;13773;48.868;10.730;2022-12-07T15:50:42;2.30;99.90
25983;DHT22;13773;48.868;10.730;2022-12-07T15:53:08;2.30;99.90
25983;DHT22;13773;48.868;10.730;2022-12-07T15:55:33;2.30;99.90
25983;DHT22;13773;48.868;10.730;2022-12-07T15:57:59;2.30;99.90
25983;DHT22;13773;48.868;10.730;2022-12-07T16:00:26;2.30;99.90
25983;DHT22;13773;48.868;10.730;2022-12-07T16:02:52;2.30;99.90
25983;DHT22;13773;48.868;10.730;2022-12-07T16:05:18;2.30;99.90
25983;DHT22;13773;48.868;10.730;2022-12-07T16:07:43;2.30;99.90
25983;DHT22;13773;48.868;10.730;2022-12-07T16:10:11;2.20;99.90
25983;DHT22;13773;48.868;10.730;2022-12-07T16:12:37;2.30;99.90
25983;DHT22;13773;48.868;10.730;2022-12-07T16:15:03;2.20;99.90
25983;DHT22;13773;48.868;10.730;2022-12-07T16:17:29;2.30;99.90
25983;DHT22;13773;48.868;10.730;2022-12-07T16:19:55;2.30;99.90
25983;DHT22;13773;48.868;10.730;2022-12-07T16:22:20;2.30;99.90
25983;DHT22;13773;48.868;10.730;2022-12-07T16:24:46;2.30;99.90
25983;DHT22;13773;48.868;10.730;2022-12-07T16:27:12;2.20;99.90
25983;DHT22;13773;48.868;10.730;2022-12-07T16:29:38;2.20;99.90
25983;DHT22;13773;48.868;10.730;2022-12-07T16:32:04;2.20;99.90
25983;DHT22;13773;48.868;10.730;2022-12-07T16:34:30;2.10;99.90
25983;DHT22;13773;48.868;10.730;2022-12-07T16:36:55;2.10;99.90
25983;DHT22;13773;48.868;10.730;2022-12-07T16:39:21;2.00;99.90
25983;DHT22;13773;48.868;10.730;2022-12-07T16:41:47;2.00;99.90
25983;DHT22;13773;48.868;10.730;2022-12-07T16:44:13;2.00;99.90
25983;DHT22;13773;48.868;10.730;2022-12-07T16:46:39;2.00;99.90
25983;DHT22;13773;48.868;10.730;2022-12-07T16:49:05;2.00;99.90
25983;DHT22;13773;48.868;10.730;2022-12-07T16:51:31;2.00;99.90
25983;DHT22;13773;48.868;10.730;2022-12-07T16:53:57;2.00;99.90
25983;DHT22;13773;48.868;10.730;2022-12-07T16:56:23;2.00;99.90
25983;DHT22;13773;48.868;10.730;2022-12-07T16:58:49;2.00;99.90
25983;DHT22;13773;48.868;10.730;2022-12-07T17:01:24;2.00;99.90
25983;DHT22;13773;48.868;10.730;2022-12-07T17:03:52;2.00;99.90
25983;DHT22;13773;48.868;10.730;2022-12-07T17:06:23;2.00;99.90
25983;DHT22;13773;48.868;10.730;2022-12-07T17:08:50;1.90;99.90
25983;DHT22;13773;48.868;10.730;2022-12-07T17:11:22;1.90;99.90
25983;DHT22;13773;48.868;10.730;2022-12-07T17:13:48;1.90;99.90
25983;DHT22;13773;48.868;10.730;2022-12-07T17:16:32;1.90;99.90
25983;DHT22;13773;48.868;10.730;2022-12-07T17:18:58;1.90;99.90
25983;DHT22;13773;48.868;10.730;2022-12-07T17:21:24;1.80;99.90
25983;DHT22;13773;48.868;10.730;2022-12-07T17:23:50;1.80;99.90
25983;DHT22;13773;48.868;10.730;2022-12-07T17:26:22;1.80;99.90
25983;DHT22;13773;48.868;10.730;2022-12-07T17:28:48;1.80;99.90
25983;DHT22;13773;48.868;10.730;2022-12-07T17:31:16;1.80;99.90
25983;DHT22;13773;48.868;10.730;2022-12-07T17:33:42;1.70;99.90
25983;DHT22;13773;48.868;10.730;2022-12-07T17:36:19;1.70;99.90
25983;DHT22;13773;48.868;10.730;2022-12-07T17:38:45;1.70;99.90
25983;DHT22;13773;48.868;10.730;2022-12-07T17:41:15;1.70;99.90
25983;DHT22;13773;48.868;10.730;2022-12-07T17:44:01;1.70;99.90
25983;DHT22;13773;48.868;10.730;2022-12-07T17:46:27;1.80;99.90
25983;DHT22;13773;48.868;10.730;2022-12-07T17:48:57;1.70;99.90
25983;DHT22;13773;48.868;10.730;2022-12-07T17:51:23;1.70;99.90
25983;DHT22;13773;48.868;10.730;2022-12-07T17:54:07;1.70;99.90
25983;DHT22;13773;48.868;10.730;2022-12-07T17:56:34;1.70;99.90